• Join FlightAware (Why Join?)
  • Login
  • US Flag 
06:17AM EDT


 

Airport Tracker/Info


-or-


 

Live Flight TrackerFlight Track Log ✈ SWA1017 ✈ 24-Apr-2013 ✈ KAUS - KDAL

Flight Track Log - Related Links

Times and Time Zones

All times are in EDT time to prevent confusion due to time zone crossing. See the SWA1017 flight status page for this flight to view local times or setup timezone preferences in your user account.

Time Position Orientation Groundspeed Altitude Reporting Facility
EDT Latitude Longitude Course Direction KTS MPH feet Rate Location/Type
04:53PM 30.2789 -97.5694 41° Northeast 240 276 5,700  Level Houston Center
04:54PM 30.3117 -97.4858 66° East 276 318 6,200 2,100 Climbing Houston Center
04:55PM 30.3658 -97.3956 55° Northeast 299 344 10,100 3,000 Climbing Houston Center
04:56PM 30.4531 -97.3542 22° Northeast 338 389 12,500 1,020 Climbing Houston Center
04:58PM 30.6383 -97.1950 41° Northeast  Level FlightAware Approximate
04:58PM 30.6256 -97.2347 31° Northeast 365 420 13,300  Level Houston Center
04:59PM 30.7000 -97.1458 46° Northeast 384 442 16,500 3,240 Climbing Houston Center
05:00PM 30.7894 -97.0394 46° Northeast 394 453 20,000 2,640 Climbing Houston Center
05:01PM 30.8672 -96.9469 46° Northeast 399 459 22,000 960 Climbing Houston Center
05:02PM 30.9450 -96.8533 46° Northeast 402 463 22,000  Level Houston Center
05:03PM 31.0228 -96.7586 46° Northeast 403 464 22,000  Level Houston Center
05:04PM 31.1050 -96.6600 46° Northeast 420 483 22,000  Level Houston Center
05:05PM 31.1881 -96.5606 46° Northeast 425 489 22,000  Level Houston Center
05:06PM 31.2853 -96.4431 46° Northeast 428 493 22,000  Level Houston Center
05:07PM 31.3675 -96.3411 47° Northeast 427 491 22,000  Level Houston Center
05:08PM 31.4797 -96.3025 16° North 400 460 22,000  Level Fort Worth Center
05:09PM 31.5903 -96.2892 North 389 448 22,000  Level Fort Worth Center
05:10PM 31.7136 -96.2828 North 399 459 22,000 -1,500 Level Fort Worth Center
05:11PM 31.8222 -96.2961 354° North 388 447 19,100 -2,880 Descending Fort Worth Center
05:12PM 31.9308 -96.3119 353° North 398 458 16,300 -3,000 Descending Fort Worth Center
05:13PM 32.0436 -96.3228 355° North 398 458 13,100 -2,820 Descending Fort Worth Center
05:14PM 32.1400 -96.3364 353° North 398 458 10,700 -1,560 Descending Fort Worth Center
05:15PM 32.2403 -96.3475 355° North 365 420 10,000 -540 Descending Fort Worth Center
05:16PM 32.3322 -96.3586 354° North 318 366 9,700 -540 Descending Fort Worth Center
05:17PM 32.4011 -96.3675 354° North 283 326 9,000 -960 Descending Fort Worth Center
05:18PM 32.4661 -96.4186 326° Northwest 244 281 7,800 -1,440 Descending Fort Worth Center
05:19PM 32.5106 -96.4747 313° West 256 295 6,200 -1,500 Descending Fort Worth Center
05:20PM 32.5694 -96.5383 318° Northwest 256 295 4,900 -1,140 Descending Fort Worth Center
05:21PM 32.6156 -96.5922 315° West 256 295 4,000 -600 Descending Fort Worth Center
05:22PM 32.6703 -96.6558 316° Northwest 251 289 3,800 -540 Descending Fort Worth Center
05:23PM 32.7167 -96.7167 312° West 256 295 3,000 -720 Descending Dallas / Fort Worth TRACON
05:24PM 32.7667 -96.7667 320° Northwest 213 245 2,400 -780 Descending Dallas / Fort Worth TRACON
05:25PM 32.8000 -96.8000 320° Northwest 163 188 1,500 -480 Descending Dallas / Fort Worth TRACON
05:27PM 32.7944 -96.8325 259° West 128 147 1,100 -120 Descending Fort Worth Center
05:28PM 32.7653 -96.8378 189° South 93 107 1,200  Climbing Fort Worth Center
05:29PM 32.7403 -96.8403 185° South 138 159 1,200  Level Fort Worth Center
05:31PM 32.8333 -96.8500 301° West  Level FlightAware Approximate
05:38PM 32.8471 -96.8518 301° West  Level Estimated
05:39PM 32.8471 -96.8518 301° West  Level Estimated
05:40PM 32.8471 -96.8518 301° West  Level Estimated